CYYG

Charlottetown Airport

Charlottetown, Prince Edward Island, Canada
METAR CYYG 172300Z 19013KT 15SM FEW085 SCT120 SCT220 BKN280 25/19 A2979 RMK AC1AC2CC1CI3 CB DIST WNW SLP088 DENSITY ALT 1500FT
Observed Flight Rules
Jul-17 @ 23:00 UTC (20 minutes ago) Visual Flight Rules
Wind Visibility Clouds
190° at 13 knots 15 miles
  • Few at 8,500' AGL
  • Scattered at 12,000' AGL
  • Scattered at 22,000' AGL
  • Broken at 28,000' AGL
Temperatures Readings
Current 25°C / 77°F
Dewpoint 19°C / 66°F
Humidity 69%
Altimeter 29.79" Hg
Pressure 1008.8 hPa
Elevation 54
METAR CYYG 172300Z 19013KT 15SM FEW085 SCT120 SCT220 BKN280 25/19 A2979 RMK AC1AC2CC1CI3 CB DIST WNW SLP088 DENSITY ALT 1500FT
Observed Flight Rules
Jul-17 @ 23:00 UTC
(20 minutes ago)
VFR
Wind Visibility
190° at 13 knots 15 miles
Clouds
  • Few at 8,500' AGL
  • Scattered at 12,000' AGL
  • Scattered at 22,000' AGL
  • Broken at 28,000' AGL
Temperature Dewpoint
25°C / 77°F 19°C / 66°F
Humidity Altimeter Pressure
69% 29.79" Hg 1008.8 hPa